Dacula, Georgia
Current Conditions -  °F | °C
As of 7:45 PM on Tuesday 21 Oct 2014 (Local Time) from KLZU Reporting Station
Clear Clear  
Wind Chill: 63°   Ceiling: Unl
Heat Index: 63°   Visibility: 10mi
Dew Point: 45°   Wind: 0mph
Humidity: 52%   Direction: NA
Pressure: 29.98"   Gusts: NA
Location:  33.99°N, 83.9°W
Report Text: KLZU 212345Z 00000KT 10SM CLR 17/07 A2998 RMK ATIS O ; RWY 25 ; BK
Loading
Personal Weather Stations






























Interactive Weather Map
Tropical Storm Tracking
New forecast layout! Learn more

10-Day Weather Forecast

Advertisements
Track Severe Weather on mobile